Time;durP1;ratioP1;P1;durP2;ratioP2;P2;SDS_P1;SDS_P2;PMS_P1;PMS_P2;Temp;Humidity;BMP_temperature;BMP_pressure;BME280_temperature;BME280_humidity;BME280_pressure;Samples;Min_cycle;Max_cycle;Signal;HPM_P1;HPM_P2
2022/07/04 00:00:21;;;;;;;;;;;15.50;99.90;;;;;;5073460;28;20300;-64
2022/07/04 00:02:47;;;;;;;;;;;15.40;99.90;;;;;;5073726;28;20362;-64
2022/07/04 00:05:14;;;;;;;;;;;15.30;99.90;;;;;;5073682;28;20371;-63
2022/07/04 00:07:40;;;;;;;;;;;15.30;99.90;;;;;;5073691;28;19932;-64
2022/07/04 00:10:06;;;;;;;;;;;15.30;99.90;;;;;;5073393;28;19908;-64
2022/07/04 00:12:31;;;;;;;;;;;15.20;99.90;;;;;;5055543;28;20426;-64
2022/07/04 00:14:57;;;;;;;;;;;15.20;99.90;;;;;;5073422;28;19955;-64
2022/07/04 00:17:22;;;;;;;;;;;15.10;99.90;;;;;;5074289;28;19921;-64
2022/07/04 00:19:48;;;;;;;;;;;15.00;99.90;;;;;;5077621;28;19958;-64
2022/07/04 00:22:13;;;;;;;;;;;14.80;99.90;;;;;;5077521;28;20343;-63
2022/07/04 00:24:39;;;;;;;;;;;14.60;99.90;;;;;;5077257;28;19909;-63
2022/07/04 00:27:05;;;;;;;;;;;14.60;99.90;;;;;;5077451;28;19908;-64
2022/07/04 00:29:30;;;;;;;;;;;14.60;99.90;;;;;;5077181;28;19908;-63
2022/07/04 00:31:55;;;;;;;;;;;14.50;99.90;;;;;;5077458;28;19908;-63
2022/07/04 00:34:21;;;;;;;;;;;14.50;99.90;;;;;;5077187;28;19995;-63
2022/07/04 00:36:46;;;;;;;;;;;14.40;99.90;;;;;;5059088;28;19919;-64
2022/07/04 00:39:12;;;;;;;;;;;14.40;99.90;;;;;;5076948;28;19909;-64
2022/07/04 00:41:37;;;;;;;;;;;14.50;99.90;;;;;;5077175;28;20005;-64
2022/07/04 00:44:04;;;;;;;;;;;14.60;99.90;;;;;;5076899;28;19915;-63
2022/07/04 00:46:30;;;;;;;;;;;14.60;99.90;;;;;;5058914;28;20000;-64
2022/07/04 00:48:55;;;;;;;;;;;14.70;99.90;;;;;;5077042;28;19943;-63
2022/07/04 00:51:21;;;;;;;;;;;14.70;99.90;;;;;;5076813;28;19908;-63
2022/07/04 00:53:47;;;;;;;;;;;14.70;99.90;;;;;;5076918;28;19912;-64
2022/07/04 00:56:12;;;;;;;;;;;14.70;99.90;;;;;;5076674;28;19921;-63
2022/07/04 00:58:38;;;;;;;;;;;14.70;99.90;;;;;;5076584;28;19917;-63
2022/07/04 01:01:03;;;;;;;;;;;14.70;99.90;;;;;;5058548;28;19915;-63
2022/07/04 01:03:29;;;;;;;;;;;14.70;99.90;;;;;;5076763;28;19915;-63
2022/07/04 01:05:55;;;;;;;;;;;14.60;99.90;;;;;;5076468;28;20352;-63
2022/07/04 01:08:21;;;;;;;;;;;14.60;99.90;;;;;;5076424;28;19916;-63
2022/07/04 01:10:46;;;;;;;;;;;14.50;99.90;;;;;;5058485;28;19909;-63
2022/07/04 01:13:26;;;;;;;;;;;14.40;99.90;;;;;;5076364;28;20367;-63
2022/07/04 01:15:52;;;;;;;;;;;14.40;99.90;;;;;;5076209;28;19913;-64
2022/07/04 01:18:18;;;;;;;;;;;14.40;99.90;;;;;;5076495;28;19913;-64
2022/07/04 01:20:43;;;;;;;;;;;14.30;99.90;;;;;;5076214;28;19931;-64
2022/07/04 01:23:09;;;;;;;;;;;14.30;99.90;;;;;;5076139;28;19954;-63
2022/07/04 01:25:34;;;;;;;;;;;14.20;99.90;;;;;;5076368;28;20009;-63
2022/07/04 01:28:00;;;;;;;;;;;14.10;99.90;;;;;;5057822;28;19909;-63
2022/07/04 01:30:26;;;;;;;;;;;14.00;99.90;;;;;;5076042;28;20007;-64
2022/07/04 01:32:53;;;;;;;;;;;13.80;99.90;;;;;;5058045;28;19916;-64
2022/07/04 01:35:19;;;;;;;;;;;13.60;99.90;;;;;;5075989;28;19916;-63
2022/07/04 01:37:44;;;;;;;;;;;13.50;99.90;;;;;;5076126;28;19981;-63
2022/07/04 01:40:12;;;;;;;;;;;13.50;99.90;;;;;;5076115;28;19909;-63
2022/07/04 01:42:37;;;;;;;;;;;13.40;99.90;;;;;;5075806;28;19916;-63
2022/07/04 01:45:03;;;;;;;;;;;13.30;99.90;;;;;;5075769;28;19909;-63
2022/07/04 01:47:29;;;;;;;;;;;13.20;99.90;;;;;;5076008;28;19960;-63
2022/07/04 01:49:54;;;;;;;;;;;13.10;99.90;;;;;;5075937;28;20290;-63
2022/07/04 01:52:20;;;;;;;;;;;13.10;99.90;;;;;;5075919;28;19950;-63
2022/07/04 01:54:45;;;;;;;;;;;13.00;99.90;;;;;;5075836;28;19908;-63
2022/07/04 01:57:12;;;;;;;;;;;13.00;99.90;;;;;;5075197;28;20297;-63
2022/07/04 02:02:24;;;;;;;;;;;13.10;99.90;;;;;;5075171;28;19908;-63
2022/07/04 02:04:49;;;;;;;;;;;13.10;99.90;;;;;;5075648;28;20390;-63
2022/07/04 02:07:15;;;;;;;;;;;13.40;99.90;;;;;;5057516;28;19962;-64
2022/07/04 02:09:41;;;;;;;;;;;13.60;99.90;;;;;;5075263;28;19915;-63
2022/07/04 02:14:52;;;;;;;;;;;13.90;99.90;;;;;;5074963;28;19952;-63
2022/07/04 02:17:17;;;;;;;;;;;14.00;99.90;;;;;;5075328;28;19959;-65
2022/07/04 02:19:43;;;;;;;;;;;14.10;99.90;;;;;;5075324;28;19909;-64
2022/07/04 02:22:09;;;;;;;;;;;14.20;99.90;;;;;;5074922;28;20386;-63
2022/07/04 02:24:35;;;;;;;;;;;14.20;99.90;;;;;;5075225;28;20012;-63
2022/07/04 02:27:00;;;;;;;;;;;14.30;99.90;;;;;;5074922;28;19943;-63
2022/07/04 02:29:26;;;;;;;;;;;14.20;99.90;;;;;;5057072;28;19908;-63
2022/07/04 02:31:51;;;;;;;;;;;14.30;99.90;;;;;;5056973;28;19908;-63
2022/07/04 02:34:17;;;;;;;;;;;14.10;99.90;;;;;;5075041;28;20381;-63
2022/07/04 02:36:42;;;;;;;;;;;14.10;99.90;;;;;;5056713;28;19913;-63
2022/07/04 02:39:08;;;;;;;;;;;14.10;99.90;;;;;;5074996;28;19951;-63
2022/07/04 02:41:33;;;;;;;;;;;14.00;99.90;;;;;;5074043;28;20374;-62
2022/07/04 02:43:59;;;;;;;;;;;13.90;99.90;;;;;;5074837;28;19916;-63
2022/07/04 02:46:24;;;;;;;;;;;13.80;99.90;;;;;;5074814;28;19909;-63
2022/07/04 02:48:50;;;;;;;;;;;13.70;99.90;;;;;;5074728;28;19916;-63
2022/07/04 02:51:15;;;;;;;;;;;13.50;99.90;;;;;;5074682;28;19908;-62
2022/07/04 02:53:41;;;;;;;;;;;13.40;99.90;;;;;;5074683;28;19916;-63
2022/07/04 02:56:06;;;;;;;;;;;13.30;99.90;;;;;;5074255;28;20386;-62
2022/07/04 02:58:32;;;;;;;;;;;13.10;99.90;;;;;;5074329;28;20397;-63
2022/07/04 03:00:58;;;;;;;;;;;13.00;99.90;;;;;;5074271;28;19913;-63
2022/07/04 03:03:23;;;;;;;;;;;13.00;99.90;;;;;;5074519;28;19909;-63
2022/07/04 03:05:49;;;;;;;;;;;12.90;99.90;;;;;;5074467;28;19957;-63
2022/07/04 03:08:14;;;;;;;;;;;12.80;99.90;;;;;;5074430;28;19991;-62
2022/07/04 03:10:40;;;;;;;;;;;12.80;99.90;;;;;;5074401;28;20005;-63
2022/07/04 03:13:05;;;;;;;;;;;12.80;99.90;;;;;;5074115;28;20389;-63
2022/07/04 03:15:31;;;;;;;;;;;;;;;;;;5074000;28;19995;-63
2022/07/04 03:17:56;;;;;;;;;;;12.70;99.90;;;;;;5073916;28;19931;-63
2022/07/04 03:20:22;;;;;;;;;;;12.70;99.90;;;;;;5074237;28;19908;-63
2022/07/04 03:22:48;;;;;;;;;;;12.70;99.90;;;;;;5074199;28;19912;-63
2022/07/04 03:25:14;;;;;;;;;;;12.70;99.90;;;;;;5074169;28;19919;-64
2022/07/04 03:27:39;;;;;;;;;;;12.80;99.90;;;;;;5073846;28;20003;-63
2022/07/04 03:30:05;;;;;;;;;;;12.80;99.90;;;;;;5074079;28;19915;-63
2022/07/04 03:32:30;;;;;;;;;;;12.80;99.90;;;;;;5073777;28;20386;-63
2022/07/04 03:34:56;;;;;;;;;;;12.90;99.90;;;;;;5074010;28;19909;-63
2022/07/04 03:37:21;;;;;;;;;;;12.90;99.90;;;;;;5073757;28;19912;-63
2022/07/04 03:39:47;;;;;;;;;;;12.90;99.90;;;;;;5073970;28;19974;-63
2022/07/04 03:42:12;;;;;;;;;;;12.90;99.90;;;;;;5073680;28;19912;-63
2022/07/04 03:44:38;;;;;;;;;;;13.00;99.90;;;;;;5073649;28;19960;-63
2022/07/04 03:47:03;;;;;;;;;;;13.00;99.90;;;;;;5073924;28;19916;-63
2022/07/04 03:49:29;;;;;;;;;;;13.00;99.90;;;;;;5073542;28;19915;-63
2022/07/04 03:51:54;;;;;;;;;;;13.00;99.90;;;;;;5073424;28;19909;-64
2022/07/04 03:54:20;;;;;;;;;;;13.10;99.90;;;;;;5073828;28;19908;-63
2022/07/04 03:56:45;;;;;;;;;;;13.10;99.90;;;;;;5073339;28;19924;-63
2022/07/04 03:59:11;;;;;;;;;;;13.10;99.90;;;;;;5073776;28;20416;-63
2022/07/04 04:01:36;;;;;;;;;;;13.10;99.90;;;;;;5073752;28;19959;-63
2022/07/04 04:06:47;;;;;;;;;;;13.10;99.90;;;;;;5073204;28;19909;-63
2022/07/04 04:09:16;;;;;;;;;;;13.20;99.90;;;;;;5055428;28;19908;-63
2022/07/04 04:11:42;;;;;;;;;;;13.20;99.90;;;;;;5073358;28;19915;-63
2022/07/04 04:14:08;;;;;;;;;;;13.30;99.90;;;;;;5038920;28;20392;-62
2022/07/04 04:16:34;;;;;;;;;;;13.30;99.90;;;;;;5073498;28;20003;-63
2022/07/04 04:18:59;;;;;;;;;;;13.40;99.90;;;;;;5073299;28;19909;-63
2022/07/04 04:21:25;;;;;;;;;;;13.50;99.90;;;;;;5073295;28;19917;-63
2022/07/04 04:23:50;;;;;;;;;;;13.50;99.90;;;;;;5073492;28;19913;-63
2022/07/04 04:26:16;;;;;;;;;;;13.60;99.90;;;;;;5073519;28;19915;-63
2022/07/04 04:28:42;;;;;;;;;;;13.70;99.90;;;;;;5073216;28;19915;-63
2022/07/04 04:31:08;;;;;;;;;;;13.80;99.90;;;;;;5073463;28;19913;-63
2022/07/04 04:33:34;;;;;;;;;;;13.90;99.90;;;;;;5073453;28;19908;-63
2022/07/04 04:36:00;;;;;;;;;;;13.90;99.90;;;;;;5073039;28;19963;-63
2022/07/04 04:38:25;;;;;;;;;;;14.10;99.90;;;;;;5073390;28;19955;-63
2022/07/04 04:40:51;;;;;;;;;;;14.30;99.90;;;;;;5073394;28;20316;-63
2022/07/04 04:43:16;;;;;;;;;;;14.90;99.90;;;;;;5073086;28;20434;-63
2022/07/04 04:45:42;;;;;;;;;;;15.90;99.90;;;;;;5073298;28;19915;-64
2022/07/04 04:48:07;;;;;;;;;;;16.70;99.90;;;;;;5073020;28;19912;-63
2022/07/04 04:50:32;;;;;;;;;;;17.30;99.90;;;;;;5055372;28;19955;-64
2022/07/04 04:52:58;;;;;;;;;;;17.70;99.90;;;;;;5073006;28;19919;-64
2022/07/04 04:55:23;;;;;;;;;;;18.10;99.90;;;;;;5072792;28;19908;-63
2022/07/04 04:57:49;;;;;;;;;;;18.30;99.90;;;;;;5072847;28;20354;-63
2022/07/04 05:00:14;;;;;;;;;;;18.80;99.90;;;;;;5073222;28;19952;-63
2022/07/04 05:02:40;;;;;;;;;;;18.70;99.90;;;;;;5072801;28;19958;-63
2022/07/04 05:05:06;;;;;;;;;;;18.60;99.90;;;;;;5076450;28;19909;-63
2022/07/04 05:07:31;;;;;;;;;;;18.90;99.90;;;;;;5076705;28;19908;-63
2022/07/04 05:09:58;;;;;;;;;;;19.50;99.90;;;;;;5076425;28;19909;-64
2022/07/04 05:12:25;;;;;;;;;;;19.80;99.90;;;;;;5076624;28;20401;-64
2022/07/04 05:14:51;;;;;;;;;;;19.70;99.90;;;;;;5076549;28;19915;-64
2022/07/04 05:17:16;;;;;;;;;;;19.80;99.90;;;;;;5076168;28;19912;-64
2022/07/04 05:19:42;;;;;;;;;;;19.90;99.90;;;;;;5076506;28;19916;-64
2022/07/04 05:22:07;;;;;;;;;;;19.60;99.90;;;;;;5076488;28;20366;-64
2022/07/04 05:24:33;;;;;;;;;;;20.20;99.90;;;;;;5058626;28;19912;-64
2022/07/04 05:26:59;;;;;;;;;;;19.70;99.90;;;;;;5076368;28;19908;-64
2022/07/04 05:29:24;;;;;;;;;;;20.00;99.90;;;;;;5076122;28;19908;-64
2022/07/04 05:31:50;;;;;;;;;;;20.20;99.90;;;;;;5076276;28;19908;-64
2022/07/04 05:34:18;;;;;;;;;;;20.90;99.90;;;;;;5075954;28;20100;-64
2022/07/04 05:36:43;;;;;;;;;;;21.10;99.90;;;;;;5076097;28;20386;-64
2022/07/04 05:39:09;;;;;;;;;;;21.50;99.90;;;;;;5075873;28;19908;-64
2022/07/04 05:41:35;;;;;;;;;;;22.10;99.90;;;;;;5076152;28;20375;-64
2022/07/04 05:44:00;;;;;;;;;;;21.40;99.90;;;;;;5076019;28;19909;-64
2022/07/04 05:46:26;;;;;;;;;;;21.20;99.90;;;;;;5075762;28;19947;-65
2022/07/04 05:48:51;;;;;;;;;;;21.00;99.90;;;;;;5075930;28;20278;-64
2022/07/04 05:51:17;;;;;;;;;;;21.30;99.90;;;;;;5075568;28;20005;-64
2022/07/04 05:53:42;;;;;;;;;;;21.50;99.90;;;;;;5075590;28;19908;-64
2022/07/04 05:56:08;;;;;;;;;;;21.30;99.90;;;;;;5056387;28;20318;-63
2022/07/04 05:58:33;;;;;;;;;;;21.20;99.90;;;;;;5076173;28;19961;-65
2022/07/04 06:00:58;;;;;;;;;;;21.20;99.90;;;;;;5076797;28;20274;-64
2022/07/04 06:03:24;;;;;;;;;;;20.70;99.90;;;;;;5065632;28;19919;-63
2022/07/04 06:05:49;;;;;;;;;;;21.40;99.90;;;;;;5078731;28;19986;-63
2022/07/04 06:08:15;;;;;;;;;;;21.20;99.90;;;;;;5079752;28;19919;-64
2022/07/04 06:10:41;;;;;;;;;;;21.30;99.90;;;;;;5075649;28;19919;-64
2022/07/04 06:13:06;;;;;;;;;;;22.40;99.90;;;;;;5074388;28;20367;-64
2022/07/04 06:15:32;;;;;;;;;;;22.90;99.90;;;;;;5075023;28;20359;-63
2022/07/04 06:17:57;;;;;;;;;;;23.70;99.90;;;;;;5075260;28;19912;-63
2022/07/04 06:20:23;;;;;;;;;;;23.00;99.90;;;;;;5075258;28;20383;-63
2022/07/04 06:22:49;;;;;;;;;;;23.50;99.90;;;;;;5073719;28;20363;-64
2022/07/04 06:25:17;;;;;;;;;;;23.30;99.90;;;;;;5075189;28;19917;-63
2022/07/04 06:27:43;;;;;;;;;;;22.70;99.90;;;;;;5074829;28;19965;-63
2022/07/04 06:30:09;;;;;;;;;;;23.10;99.90;;;;;;5074307;28;20325;-63
2022/07/04 06:32:51;;;;;;;;;;;23.20;99.90;;;;;;5073607;28;19913;-63
2022/07/04 06:35:54;;;;;;;;;;;23.50;99.90;;;;;;5073953;28;19948;-63
2022/07/04 06:38:04;;;;;;;;;;;24.90;99.90;;;;;;5067460;28;19969;-63
2022/07/04 06:40:30;;;;;;;;;;;25.40;98.40;;;;;;5073748;28;19956;-63
2022/07/04 06:42:55;;;;;;;;;;;24.90;98.60;;;;;;5055752;28;19927;-64
2022/07/04 06:45:21;;;;;;;;;;;24.10;99.30;;;;;;5074006;28;19913;-63
2022/07/04 06:47:46;;;;;;;;;;;23.80;99.90;;;;;;5074380;28;19916;-65
2022/07/04 06:50:12;;;;;;;;;;;23.50;99.90;;;;;;5074066;28;19916;-63
2022/07/04 06:52:40;;;;;;;;;;;23.20;99.90;;;;;;5074120;28;19934;-63
2022/07/04 06:55:09;;;;;;;;;;;24.50;99.90;;;;;;5073545;28;19912;-63
2022/07/04 06:57:37;;;;;;;;;;;24.10;99.90;;;;;;5069489;28;20298;-63
2022/07/04 07:00:05;;;;;;;;;;;23.70;99.90;;;;;;5070136;28;19912;-63
2022/07/04 07:02:34;;;;;;;;;;;24.00;99.90;;;;;;5071191;28;19912;-64
2022/07/04 07:05:01;;;;;;;;;;;23.60;99.90;;;;;;5053264;28;20022;-63
2022/07/04 07:07:27;;;;;;;;;;;23.70;99.90;;;;;;5051715;28;19959;-63
2022/07/04 07:09:53;;;;;;;;;;;23.20;99.90;;;;;;5072640;28;19920;-64
2022/07/04 07:12:19;;;;;;;;;;;22.60;99.90;;;;;;5071201;28;19958;-65
2022/07/04 07:14:45;;;;;;;;;;;22.50;99.90;;;;;;5069999;28;20309;-64
2022/07/04 07:17:11;;;;;;;;;;;22.10;99.90;;;;;;5053271;28;19920;-64
2022/07/04 07:19:37;;;;;;;;;;;22.00;99.90;;;;;;5049721;28;19908;-64
2022/07/04 07:22:07;;;;;;;;;;;22.40;99.90;;;;;;5070967;28;19948;-64
2022/07/04 07:24:33;;;;;;;;;;;23.40;99.90;;;;;;5071131;28;20361;-63
2022/07/04 07:26:59;;;;;;;;;;;24.10;98.70;;;;;;5070874;28;19957;-64
2022/07/04 07:29:24;;;;;;;;;;;25.30;96.40;;;;;;5073093;28;19920;-64
2022/07/04 07:31:50;;;;;;;;;;;25.30;95.20;;;;;;5073910;28;20373;-63
2022/07/04 07:34:16;;;;;;;;;;;23.70;97.50;;;;;;5077685;28;19912;-63
2022/07/04 07:36:41;;;;;;;;;;;24.10;98.50;;;;;;5082214;28;19924;-63
2022/07/04 07:39:07;;;;;;;;;;;24.90;96.40;;;;;;5072392;28;20371;-63
2022/07/04 07:41:32;;;;;;;;;;;24.50;95.80;;;;;;5071104;28;19914;-63
2022/07/04 07:43:58;;;;;;;;;;;24.80;93.50;;;;;;5071036;28;19917;-64
2022/07/04 07:46:23;;;;;;;;;;;25.30;92.80;;;;;;5069943;28;19913;-63
2022/07/04 07:48:49;;;;;;;;;;;24.90;94.00;;;;;;5065410;28;19921;-63
2022/07/04 07:51:16;;;;;;;;;;;23.80;94.30;;;;;;5073218;28;19919;-62
2022/07/04 07:53:42;;;;;;;;;;;23.40;94.60;;;;;;5072683;28;19908;-63
2022/07/04 07:56:07;;;;;;;;;;;25.00;93.00;;;;;;5069779;28;19920;-63
2022/07/04 07:58:33;;;;;;;;;;;26.20;92.20;;;;;;5072930;28;20357;-63
2022/07/04 08:00:59;;;;;;;;;;;25.70;88.00;;;;;;5072830;28;19912;-64
2022/07/04 08:06:11;;;;;;;;;;;25.70;87.90;;;;;;5069461;28;19966;-63
2022/07/04 08:08:37;;;;;;;;;;;26.00;87.80;;;;;;5065522;28;19962;-64
2022/07/04 08:11:03;;;;;;;;;;;26.30;84.90;;;;;;5072435;28;19913;-63
2022/07/04 08:13:28;;;;;;;;;;;26.70;82.40;;;;;;5070866;28;19916;-64
2022/07/04 08:15:54;;;;;;;;;;;26.20;84.40;;;;;;5071725;28;20317;-62
2022/07/04 08:18:19;;;;;;;;;;;25.00;86.60;;;;;;5073401;28;19995;-63
2022/07/04 08:20:45;;;;;;;;;;;24.10;88.10;;;;;;5072294;28;19958;-64
2022/07/04 08:23:10;;;;;;;;;;;24.00;90.70;;;;;;5067680;28;19974;-63
2022/07/04 08:25:36;;;;;;;;;;;25.50;87.80;;;;;;5072843;28;19919;-63
2022/07/04 08:28:01;;;;;;;;;;;26.50;84.10;;;;;;5065928;28;20359;-64
2022/07/04 08:30:37;;;;;;;;;;;25.90;82.50;;;;;;5071228;28;19908;-64
2022/07/04 08:33:02;;;;;;;;;;;23.70;88.80;;;;;;5070985;28;19912;-64
2022/07/04 08:35:28;;;;;;;;;;;23.90;90.90;;;;;;5072337;28;19986;-63
2022/07/04 08:37:55;;;;;;;;;;;25.10;88.60;;;;;;5072434;28;20321;-63
2022/07/04 08:40:22;;;;;;;;;;;25.80;83.60;;;;;;5075421;28;20335;-63
2022/07/04 08:42:48;;;;;;;;;;;24.50;87.90;;;;;;5058780;28;20282;-63
2022/07/04 08:45:15;;;;;;;;;;;23.90;88.40;;;;;;5076600;28;19958;-63
2022/07/04 08:47:41;;;;;;;;;;;24.40;84.90;;;;;;5076053;28;19913;-63
2022/07/04 08:50:10;;;;;;;;;;;25.70;81.40;;;;;;5074132;28;19909;-64
2022/07/04 08:52:38;;;;;;;;;;;26.80;78.20;;;;;;5055400;28;19920;-65
2022/07/04 09:00:37;;;;;;;;;;;25.90;77.70;;;;;;5075066;28;19912;-65
2022/07/04 09:03:03;;;;;;;;;;;25.30;78.30;;;;;;5076314;28;19908;-65
2022/07/04 09:05:29;;;;;;;;;;;24.80;78.70;;;;;;5075166;28;20337;-65
2022/07/04 09:07:55;;;;;;;;;;;24.90;78.80;;;;;;5075561;28;20003;-65
2022/07/04 09:10:21;;;;;;;;;;;24.80;79.80;;;;;;5076428;28;20322;-65
2022/07/04 09:12:46;;;;;;;;;;;26.00;80.10;;;;;;5074382;28;19982;-65
2022/07/04 09:15:12;;;;;;;;;;;26.30;76.60;;;;;;5058248;28;19909;-65
2022/07/04 09:17:38;;;;;;;;;;;27.20;75.30;;;;;;5075749;28;19916;-65
2022/07/04 09:20:14;;;;;;;;;;;27.90;72.90;;;;;;5058302;28;19909;-65
2022/07/04 09:22:40;;;;;;;;;;;27.00;72.40;;;;;;5075314;28;20029;-65
2022/07/04 09:25:06;;;;;;;;;;;27.20;74.10;;;;;;5075934;28;20350;-65
2022/07/04 09:27:33;;;;;;;;;;;26.60;72.40;;;;;;5072029;28;19920;-65
2022/07/04 09:30:00;;;;;;;;;;;26.40;72.70;;;;;;5075857;28;19920;-65
2022/07/04 09:32:34;;;;;;;;;;;25.80;73.10;;;;;;5075632;28;19919;-65
2022/07/04 09:35:00;;;;;;;;;;;26.00;73.90;;;;;;5075492;28;19988;-66
2022/07/04 09:37:42;;;;;;;;;;;26.20;71.60;;;;;;5075271;28;19966;-65
2022/07/04 09:40:08;;;;;;;;;;;27.50;71.70;;;;;;5075413;28;19912;-65
2022/07/04 09:42:36;;;;;;;;;;;27.10;68.20;;;;;;5075819;28;19908;-65
2022/07/04 09:45:06;;;;;;;;;;;27.40;69.40;;;;;;5075183;28;20290;-65
2022/07/04 09:47:31;;;;;;;;;;;26.70;69.60;;;;;;5074004;28;19912;-66
2022/07/04 09:49:57;;;;;;;;;;;27.10;70.70;;;;;;5074744;28;19908;-65
2022/07/04 09:52:23;;;;;;;;;;;27.30;69.70;;;;;;5073323;28;19912;-66
2022/07/04 09:54:49;;;;;;;;;;;27.40;70.40;;;;;;5056694;28;19962;-65
2022/07/04 09:57:21;;;;;;;;;;;26.50;67.70;;;;;;5065896;28;19987;-65
2022/07/04 09:59:47;;;;;;;;;;;26.40;71.80;;;;;;5055051;28;19909;-65
2022/07/04 10:02:14;;;;;;;;;;;25.80;69.70;;;;;;5070085;28;19912;-65
2022/07/04 10:04:43;;;;;;;;;;;26.00;71.50;;;;;;5075062;28;19908;-65
2022/07/04 10:07:09;;;;;;;;;;;27.00;71.50;;;;;;5075121;28;20019;-66
2022/07/04 10:09:34;;;;;;;;;;;27.70;69.20;;;;;;5075363;28;19952;-64
2022/07/04 10:12:01;;;;;;;;;;;26.00;72.30;;;;;;5075014;28;20381;-65
2022/07/04 10:14:27;;;;;;;;;;;25.20;75.00;;;;;;5057255;28;19908;-64
2022/07/04 10:16:52;;;;;;;;;;;24.70;76.60;;;;;;5062325;28;19924;-65
2022/07/04 10:19:19;;;;;;;;;;;24.80;75.10;;;;;;5074979;28;20390;-65
2022/07/04 10:21:45;;;;;;;;;;;25.80;75.60;;;;;;5075110;28;19989;-65
2022/07/04 10:24:11;;;;;;;;;;;26.60;71.70;;;;;;5056688;28;19909;-65
2022/07/04 10:26:36;;;;;;;;;;;27.30;67.80;;;;;;5074482;28;19916;-65
2022/07/04 10:29:02;;;;;;;;;;;27.10;66.50;;;;;;5074994;28;19909;-65
2022/07/04 10:31:29;;;;;;;;;;;25.90;70.20;;;;;;5074557;28;19908;-65
2022/07/04 10:33:56;;;;;;;;;;;25.00;74.00;;;;;;5057028;28;20313;-65
2022/07/04 10:36:23;;;;;;;;;;;25.40;73.10;;;;;;5074339;28;19912;-65
2022/07/04 10:38:53;;;;;;;;;;;26.20;72.50;;;;;;5056596;28;20378;-65
2022/07/04 10:41:20;;;;;;;;;;;26.60;67.60;;;;;;5074362;28;19912;-64
2022/07/04 10:43:50;;;;;;;;;;;26.70;69.80;;;;;;5074487;28;19908;-66
2022/07/04 10:49:14;;;;;;;;;;;25.90;70.70;;;;;;5066258;28;20383;-66
2022/07/04 10:51:56;;;;;;;;;;;26.20;71.20;;;;;;5050272;28;19927;-67
2022/07/04 10:54:32;;;;;;;;;;;25.50;69.20;;;;;;5051530;28;20482;-66
2022/07/04 10:57:10;;;;;;;;;;;24.60;73.80;;;;;;5067161;28;19913;-66
2022/07/04 10:59:35;;;;;;;;;;;24.90;74.40;;;;;;5070076;28;20381;-66
2022/07/04 11:05:02;;;;;;;;;;;25.00;73.50;;;;;;5070211;28;20302;-66
2022/07/04 11:07:31;;;;;;;;;;;25.70;71.40;;;;;;5070825;28;19916;-66
2022/07/04 11:10:21;;;;;;;;;;;26.00;72.50;;;;;;5071039;28;19912;-66
2022/07/04 11:12:57;;;;;;;;;;;26.50;71.60;;;;;;5070809;28;20359;-66
2022/07/04 11:18:08;;;;;;;;;;;26.80;70.20;;;;;;5070710;28;19912;-66
2022/07/04 11:20:35;;;;;;;;;;;26.80;66.80;;;;;;5070478;28;19960;-67
2022/07/04 11:23:09;;;;;;;;;;;26.80;70.20;;;;;;5068183;28;19919;-66
2022/07/04 11:25:35;;;;;;;;;;;26.30;68.70;;;;;;5070851;28;19915;-66
2022/07/04 11:28:20;;;;;;;;;;;26.80;67.70;;;;;;5068484;28;20003;-67
2022/07/04 11:30:50;;;;;;;;;;;27.00;67.50;;;;;;5070281;28;19913;-67
2022/07/04 11:33:17;;;;;;;;;;;26.90;65.90;;;;;;5069820;28;19916;-66
2022/07/04 11:35:43;;;;;;;;;;;26.60;64.90;;;;;;5057626;28;19913;-66
2022/07/04 11:38:08;;;;;;;;;;;26.10;66.90;;;;;;5050727;28;19955;-67
2022/07/04 11:46:19;;;;;;;;;;;26.70;65.20;;;;;;5069646;28;19947;-67
2022/07/04 11:48:45;;;;;;;;;;;26.70;66.60;;;;;;5069437;28;19916;-66
2022/07/04 11:51:18;;;;;;;;;;;26.60;65.80;;;;;;5070067;28;19916;-67
2022/07/04 11:53:43;;;;;;;;;;;26.00;67.00;;;;;;5069144;28;20013;-66
2022/07/04 11:56:09;;;;;;;;;;;25.60;67.30;;;;;;5069742;28;19978;-67
2022/07/04 11:58:42;;;;;;;;;;;25.50;68.40;;;;;;5069926;28;19916;-67
2022/07/04 12:01:08;;;;;;;;;;;26.00;67.50;;;;;;5069806;28;20371;-67
2022/07/04 12:03:33;;;;;;;;;;;26.50;66.00;;;;;;5069202;28;20436;-66
2022/07/04 12:06:00;;;;;;;;;;;25.30;63.90;;;;;;5068364;28;19947;-70
2022/07/04 12:08:25;;;;;;;;;;;24.80;68.20;;;;;;5068715;28;19927;-69
2022/07/04 12:10:51;;;;;;;;;;;24.30;69.70;;;;;;5067873;28;19913;-65
2022/07/04 12:13:17;;;;;;;;;;;24.10;70.50;;;;;;5069418;28;19909;-65
2022/07/04 12:15:44;;;;;;;;;;;24.60;69.30;;;;;;5069931;28;19954;-67
2022/07/04 12:18:19;;;;;;;;;;;25.20;68.20;;;;;;5089333;28;19913;-66
2022/07/04 12:20:46;;;;;;;;;;;25.10;67.40;;;;;;5088884;28;19912;-65
2022/07/04 12:23:11;;;;;;;;;;;25.50;67.90;;;;;;5089430;28;20353;-66
2022/07/04 12:25:38;;;;;;;;;;;25.30;66.90;;;;;;5089311;28;19913;-65
2022/07/04 12:28:06;;;;;;;;;;;25.30;68.60;;;;;;5084068;28;20003;-65
2022/07/04 12:30:39;;;;;;;;;;;25.20;66.80;;;;;;5070025;28;20398;-65
2022/07/04 12:33:06;;;;;;;;;;;25.20;66.50;;;;;;5056551;28;19959;-65
2022/07/04 12:35:32;;;;;;;;;;;25.80;66.90;;;;;;5058038;28;20012;-65
2022/07/04 12:38:18;;;;;;;;;;;25.70;65.60;;;;;;5075635;28;19923;-65
2022/07/04 12:40:53;;;;;;;;;;;25.70;65.80;;;;;;5075339;28;19919;-65
2022/07/04 12:43:19;;;;;;;;;;;26.10;63.40;;;;;;5075344;28;20370;-66
2022/07/04 12:45:49;;;;;;;;;;;25.90;64.80;;;;;;5075489;28;19935;-64
2022/07/04 12:48:15;;;;;;;;;;;25.70;64.80;;;;;;5075298;28;19913;-64
2022/07/04 12:50:41;;;;;;;;;;;25.40;65.30;;;;;;5074359;28;19913;-65
2022/07/04 12:53:06;;;;;;;;;;;24.50;66.90;;;;;;5075182;28;20435;-65
2022/07/04 12:55:32;;;;;;;;;;;24.80;68.00;;;;;;5051920;28;19920;-64
2022/07/04 12:58:01;;;;;;;;;;;25.20;66.60;;;;;;5038001;28;19917;-66
2022/07/04 13:00:26;;;;;;;;;;;24.80;66.30;;;;;;5067290;28;19909;-65
2022/07/04 13:02:52;;;;;;;;;;;24.80;67.60;;;;;;5075016;28;19917;-65
2022/07/04 13:05:17;;;;;;;;;;;24.70;67.70;;;;;;5075367;28;19909;-66
2022/07/04 13:07:43;;;;;;;;;;;24.50;67.20;;;;;;5075256;28;19937;-66
2022/07/04 13:10:08;;;;;;;;;;;24.90;67.60;;;;;;5075005;28;19913;-66
2022/07/04 13:12:34;;;;;;;;;;;25.50;66.40;;;;;;5057051;28;19912;-66
2022/07/04 13:14:59;;;;;;;;;;;25.90;66.20;;;;;;5075151;28;19912;-66
2022/07/04 13:17:25;;;;;;;;;;;26.60;65.80;;;;;;5074633;28;20322;-66
2022/07/04 13:19:52;;;;;;;;;;;25.90;65.70;;;;;;5074988;28;19908;-66
2022/07/04 13:22:19;;;;;;;;;;;25.50;63.40;;;;;;5073389;28;19955;-66
2022/07/04 13:24:44;;;;;;;;;;;25.80;65.80;;;;;;5073223;28;20010;-65
2022/07/04 13:27:10;;;;;;;;;;;26.00;63.60;;;;;;5057030;28;19948;-66
2022/07/04 13:29:35;;;;;;;;;;;26.00;64.10;;;;;;5074807;28;20006;-66
2022/07/04 13:32:02;;;;;;;;;;;25.60;65.00;;;;;;5073542;28;20011;-66
2022/07/04 13:34:28;;;;;;;;;;;25.80;65.60;;;;;;5074416;28;19962;-66
2022/07/04 13:36:55;;;;;;;;;;;25.80;65.00;;;;;;5074669;28;19912;-67
2022/07/04 13:39:22;;;;;;;;;;;25.80;65.40;;;;;;5072928;28;19919;-67
2022/07/04 13:41:47;;;;;;;;;;;25.90;64.10;;;;;;5074403;28;19915;-67
2022/07/04 13:44:15;;;;;;;;;;;25.90;63.30;;;;;;5074379;28;20278;-66
2022/07/04 13:46:41;;;;;;;;;;;26.00;64.20;;;;;;5074314;28;19915;-66
2022/07/04 13:49:07;;;;;;;;;;;26.10;66.00;;;;;;5074673;28;19959;-66
2022/07/04 13:51:32;;;;;;;;;;;26.40;64.00;;;;;;5074407;28;19909;-66
2022/07/04 13:53:58;;;;;;;;;;;26.60;59.70;;;;;;5056399;28;20412;-67
2022/07/04 13:56:24;;;;;;;;;;;26.30;60.90;;;;;;5074269;28;19960;-66
2022/07/04 13:58:49;;;;;;;;;;;26.00;62.80;;;;;;5071799;28;19966;-66
2022/07/04 14:01:17;;;;;;;;;;;25.70;63.90;;;;;;5074385;28;19935;-66
2022/07/04 14:03:43;;;;;;;;;;;25.70;64.50;;;;;;5074404;28;19908;-66
2022/07/04 14:06:08;;;;;;;;;;;25.70;64.50;;;;;;5074367;28;19916;-66
2022/07/04 14:08:34;;;;;;;;;;;25.80;64.40;;;;;;5074414;28;19954;-67
2022/07/04 14:11:00;;;;;;;;;;;26.10;63.90;;;;;;5074170;28;19908;-66
2022/07/04 14:13:26;;;;;;;;;;;25.70;64.30;;;;;;5074237;28;19912;-67
2022/07/04 14:15:52;;;;;;;;;;;25.70;64.70;;;;;;5074001;28;20370;-67
2022/07/04 14:18:17;;;;;;;;;;;25.90;64.70;;;;;;5070946;28;19951;-68
2022/07/04 14:20:43;;;;;;;;;;;25.80;64.20;;;;;;5073833;28;19995;-66
2022/07/04 14:23:12;;;;;;;;;;;25.50;64.40;;;;;;5073580;28;19915;-66
2022/07/04 14:25:38;;;;;;;;;;;25.10;65.50;;;;;;5046025;28;19913;-66
2022/07/04 14:28:04;;;;;;;;;;;24.90;65.50;;;;;;5073374;28;19913;-66
2022/07/04 14:30:29;;;;;;;;;;;25.00;66.60;;;;;;5073511;28;19930;-64
2022/07/04 14:32:55;;;;;;;;;;;25.00;66.40;;;;;;5055692;28;20007;-64
2022/07/04 14:35:20;;;;;;;;;;;25.10;67.00;;;;;;5055334;28;19908;-64
2022/07/04 14:37:46;;;;;;;;;;;25.70;67.60;;;;;;5073504;28;20329;-65
2022/07/04 14:40:12;;;;;;;;;;;25.50;64.60;;;;;;5073598;28;19908;-64
2022/07/04 14:42:37;;;;;;;;;;;25.40;64.40;;;;;;5073865;28;19955;-65
2022/07/04 14:45:03;;;;;;;;;;;25.10;65.60;;;;;;5055569;28;19908;-65